Time;durP1;ratioP1;P1;durP2;ratioP2;P2;SDS_P1;SDS_P2;PMS_P1;PMS_P2;Temp;Humidity;BMP_temperature;BMP_pressure;BME280_temperature;BME280_humidity;BME280_pressure;Samples;Min_cycle;Max_cycle;Signal;HPM_P1;HPM_P2
2021/12/22 00:01:43;;;;;;;12.57;9.17;;;;;;;1.26;54.22;100536.44;5110878;28;20196;-60
2021/12/22 00:04:10;;;;;;;10.17;7.87;;;;;;;1.26;54.69;100531.38;5110908;28;20225;-60
2021/12/22 00:06:37;;;;;;;10.93;8.30;;;;;;;1.17;54.59;100541.72;5111079;28;20194;-60
2021/12/22 00:09:06;;;;;;;9.33;7.73;;;;;;;1.13;55.15;100544.81;5110849;28;20285;-60
2021/12/22 00:11:33;;;;;;;12.97;8.23;;;;;;;1.11;55.29;100540.41;5110942;28;20577;-60
2021/12/22 00:14:00;;;;;;;9.00;7.40;;;;;;;1.07;55.59;100544.38;5110948;28;20197;-60
2021/12/22 00:16:27;;;;;;;9.50;7.60;;;;;;;1.03;55.54;100546.59;5110827;28;20589;-60
2021/12/22 00:18:54;;;;;;;9.03;6.87;;;;;;;1.03;55.80;100539.00;5110802;28;20331;-60
2021/12/22 00:21:21;;;;;;;9.57;7.57;;;;;;;0.96;55.64;100549.47;5111027;28;20200;-61
2021/12/22 00:23:48;;;;;;;9.43;7.43;;;;;;;0.89;55.81;100549.78;5110543;28;20247;-61
2021/12/22 00:26:17;;;;;;;8.87;6.83;;;;;;;0.91;55.59;100550.78;5110798;28;20197;-59
2021/12/22 00:28:45;;;;;;;9.37;7.30;;;;;;;0.85;55.83;100551.22;5110726;28;20198;-60
2021/12/22 00:31:14;;;;;;;9.03;7.20;;;;;;;0.81;55.37;100544.19;5110488;28;20186;-59
2021/12/22 00:33:48;;;;;;;11.27;7.80;;;;;;;0.86;55.50;100557.16;5110520;28;20197;-60
2021/12/22 00:36:16;;;;;;;14.03;7.67;;;;;;;0.85;55.74;100557.97;5110882;28;20226;-61
2021/12/22 00:38:43;;;;;;;12.67;8.13;;;;;;;0.89;55.80;100567.50;5110959;28;20225;-60
2021/12/22 00:41:10;;;;;;;9.07;6.97;;;;;;;0.85;54.93;100563.00;5110655;28;20947;-59
2021/12/22 00:43:38;;;;;;;10.97;7.60;;;;;;;0.82;55.34;100555.19;5110744;28;20194;-60
2021/12/22 00:46:06;;;;;;;9.93;7.33;;;;;;;0.81;55.38;100561.03;5110763;28;20193;-60
2021/12/22 00:48:33;;;;;;;9.40;7.40;;;;;;;0.76;55.06;100554.75;5110534;28;20289;-61
2021/12/22 00:51:00;;;;;;;10.93;7.93;;;;;;;0.84;55.49;100566.31;5109369;28;20430;-60
2021/12/22 00:53:28;;;;;;;10.77;7.37;;;;;;;0.88;55.15;100560.72;5110475;28;20195;-60
2021/12/22 00:55:55;;;;;;;9.60;7.37;;;;;;;0.91;54.69;100560.88;5110656;28;20584;-60
2021/12/22 00:58:22;;;;;;;8.97;6.87;;;;;;;0.86;54.42;100567.28;5110275;28;20217;-61
2021/12/22 01:00:50;;;;;;;9.90;7.37;;;;;;;0.92;54.91;100567.72;5110464;28;20197;-61
2021/12/22 01:03:19;;;;;;;9.97;7.57;;;;;;;0.83;55.05;100564.53;5110669;28;20198;-60
2021/12/22 01:05:47;;;;;;;8.30;6.43;;;;;;;0.83;54.51;100564.53;5110471;28;20194;-61
2021/12/22 01:08:15;;;;;;;9.63;7.73;;;;;;;0.85;54.99;100568.94;5112342;28;20195;-61
2021/12/22 01:10:42;;;;;;;10.83;7.50;;;;;;;0.78;54.55;100566.75;5114148;28;20197;-61
2021/12/22 01:13:09;;;;;;;10.67;8.13;;;;;;;0.63;54.77;100531.91;5114430;28;20213;-59
2021/12/22 01:15:37;;;;;;;10.00;7.43;;;;;;;0.85;55.07;100560.47;5114069;28;20281;-61
2021/12/22 01:18:11;;;;;;;9.87;7.60;;;;;;;0.84;54.86;100561.25;5114401;28;20186;-60
2021/12/22 01:20:52;;;;;;;9.37;7.50;;;;;;;0.82;55.24;100567.84;5114025;28;20198;-61
2021/12/22 01:23:20;;;;;;;8.57;6.90;;;;;;;0.73;54.54;100564.66;5114033;28;20422;-61
2021/12/22 01:25:48;;;;;;;8.57;7.30;;;;;;;0.70;54.83;100554.31;5114150;28;20641;-61
2021/12/22 01:28:16;;;;;;;12.10;7.20;;;;;;;0.75;55.55;100558.94;5114128;28;20193;-61
2021/12/22 01:30:46;;;;;;;7.80;6.97;;;;;;;0.71;55.23;100561.16;5113839;28;20190;-61
2021/12/22 01:33:15;;;;;;;7.27;6.57;;;;;;;0.74;55.59;100566.44;5113800;28;20252;-61
2021/12/22 01:35:43;;;;;;;13.63;7.10;;;;;;;0.50;55.26;100514.94;5113687;28;20197;-61
2021/12/22 01:38:12;;;;;;;8.73;6.37;;;;;;;0.70;55.15;100561.91;5113527;28;20194;-61
2021/12/22 01:40:42;;;;;;;7.83;6.87;;;;;;;0.61;55.74;100549.47;5113867;28;20189;-60
2021/12/22 01:43:10;;;;;;;11.60;7.07;;;;;;;0.54;56.69;100555.75;5113718;28;20198;-61
2021/12/22 01:45:54;;;;;;;10.57;7.60;;;;;;;0.49;56.56;100554.56;5113781;28;20688;-61
2021/12/22 01:51:26;;;;;;;9.37;6.77;;;;;;;0.46;56.52;100551.78;5113869;28;20194;-61
2021/12/22 01:53:59;;;;;;;9.40;7.78;;;;;;;0.52;57.15;100553.91;5112709;28;20431;-61
2021/12/22 01:56:27;;;;;;;9.53;6.97;;;;;;;0.59;56.34;100551.91;5113684;28;20700;-61
2021/12/22 01:58:57;;;;;;;8.50;6.93;;;;;;;0.57;56.06;100547.50;5113355;28;20210;-61
2021/12/22 02:01:25;;;;;;;8.00;6.53;;;;;;;0.53;55.65;100546.41;5113309;28;20288;-60
2021/12/22 02:03:53;;;;;;;8.77;6.37;;;;;;;0.54;55.77;100554.88;5113593;28;20201;-61
2021/12/22 02:06:21;;;;;;;7.47;6.07;;;;;;;0.52;55.95;100547.16;5113181;28;20190;-61
2021/12/22 02:08:49;;;;;;;9.07;6.47;;;;;;;0.45;56.22;100546.63;5113109;28;20187;-61
2021/12/22 02:11:18;;;;;;;8.40;5.90;;;;;;;0.42;56.21;100538.81;5113299;28;20243;-61
2021/12/22 02:13:50;;;;;;;8.33;6.17;;;;;;;0.34;56.32;100555.06;5112934;28;20194;-60
2021/12/22 02:16:20;;;;;;;7.70;6.20;;;;;;;0.32;56.01;100549.91;5113421;28;20582;-60
2021/12/22 02:18:52;;;;;;;9.27;6.53;;;;;;;0.33;56.24;100551.66;5112662;28;20221;-60
2021/12/22 02:21:22;;;;;;;8.93;6.20;;;;;;;0.38;57.20;100554.53;5113055;28;20190;-60
2021/12/22 02:23:49;;;;;;;8.23;5.93;;;;;;;0.34;56.59;100548.38;5112940;28;20603;-61
2021/12/22 02:26:21;;;;;;;7.63;6.57;;;;;;;0.34;56.25;100550.00;5112227;28;20430;-60
2021/12/22 02:28:56;;;;;;;6.23;5.30;;;;;;;0.43;55.79;100551.56;5113071;28;20193;-60
2021/12/22 02:31:23;;;;;;;9.77;6.27;;;;;;;0.42;56.22;100554.84;5112577;28;20326;-59
2021/12/22 02:33:51;;;;;;;7.75;6.65;;;;;;;0.50;56.21;100552.88;5112075;28;20987;-61
2021/12/22 02:36:27;;;;;;;8.10;6.17;;;;;;;0.45;56.52;100555.09;5112964;28;20284;-60
2021/12/22 02:38:57;;;;;;;6.20;5.60;;;;;;;0.38;55.86;100557.06;5112782;28;20267;-61
2021/12/22 02:41:27;;;;;;;6.43;5.83;;;;;;;0.32;56.92;100554.97;5112725;28;20576;-61
2021/12/22 02:43:56;;;;;;;7.03;6.30;;;;;;;0.25;56.60;100562.84;5112346;28;20194;-60
2021/12/22 02:46:26;;;;;;;8.30;6.50;;;;;;;0.25;57.01;100555.25;5112658;28;20198;-60
2021/12/22 02:48:53;;;;;;;7.07;5.70;;;;;;;0.23;56.41;100559.34;5112388;28;20185;-61
2021/12/22 02:51:23;;;;;;;6.93;5.53;;;;;;;0.16;56.37;100548.66;5112620;28;20276;-61
2021/12/22 02:54:03;;;;;;;6.00;5.40;;;;;;;0.23;56.79;100549.22;5112696;28;20198;-60
2021/12/22 02:56:37;;;;;;;6.73;6.00;;;;;;;0.19;56.80;100547.25;5112383;28;20725;-61
2021/12/22 02:59:15;;;;;;;8.33;6.57;;;;;;;0.19;56.15;100547.25;5112293;28;20224;-60
2021/12/22 03:04:27;;;;;;;12.67;8.43;;;;;;;-0.04;57.14;100542.16;5103063;28;20652;-60
2021/12/22 03:07:01;;;;;;;12.73;7.83;;;;;;;-0.11;57.24;100547.53;5111986;28;20194;-60
2021/12/22 03:09:30;;;;;;;10.77;7.37;;;;;;;-0.16;57.86;100551.31;5111992;28;20604;-61
2021/12/22 03:12:02;;;;;;;13.17;7.63;;;;;;;-0.19;57.85;100546.91;5112211;28;20191;-60
2021/12/22 03:14:29;;;;;;;9.67;6.67;;;;;;;-0.18;58.06;100543.63;5112422;28;21066;-60
2021/12/22 03:16:58;;;;;;;8.23;6.60;;;;;;;-0.15;57.36;100548.94;5112098;28;20281;-60
2021/12/22 03:19:27;;;;;;;8.07;5.57;;;;;;;-0.11;57.08;100547.53;5111734;28;20224;-60
2021/12/22 03:22:01;;;;;;;6.90;5.30;;;;;;;-0.08;57.33;100540.13;5111701;28;20281;-61
2021/12/22 03:24:30;;;;;;;7.47;6.57;;;;;;;-0.11;57.19;100532.38;5112037;28;20186;-60
2021/12/22 03:27:00;;;;;;;6.07;5.47;;;;;;;-0.07;56.48;100550.38;5111561;28;20186;-59
2021/12/22 03:29:27;;;;;;;6.17;5.50;;;;;;;-0.07;56.82;100546.97;5111484;28;20194;-61
2021/12/22 03:31:54;;;;;;;7.40;5.87;;;;;;;-0.08;56.36;100548.59;5110800;28;20728;-61
2021/12/22 03:34:21;;;;;;;8.13;5.83;;;;;;;-0.21;56.76;100510.59;5111596;28;20194;-61
2021/12/22 03:36:48;;;;;;;7.17;6.03;;;;;;;0.04;56.50;100550.28;5111454;28;20170;-60
2021/12/22 03:39:16;;;;;;;13.83;6.57;;;;;;;0.09;56.48;100548.97;5111366;28;20224;-61
2021/12/22 03:41:46;;;;;;;10.40;6.67;;;;;;;0.09;56.78;100552.38;5111443;28;20272;-60
2021/12/22 03:44:13;;;;;;;8.87;5.93;;;;;;;0.06;55.97;100549.63;5111537;28;20194;-60
2021/12/22 03:46:41;;;;;;;9.23;6.70;;;;;;;0.09;56.22;100554.91;5111489;28;20198;-60
2021/12/22 03:49:11;;;;;;;7.77;6.13;;;;;;;-0.06;56.65;100528.53;5111642;28;20186;-60
2021/12/22 03:51:38;;;;;;;16.00;7.00;;;;;;;-0.04;56.52;100557.31;5111727;28;20197;-60
2021/12/22 03:54:08;;;;;;;12.43;7.27;;;;;;;0.01;57.37;100545.88;5111107;28;20190;-60
2021/12/22 03:56:35;;;;;;;13.80;6.30;;;;;;;-0.07;56.83;100534.34;5111426;28;20216;-60
2021/12/22 03:59:05;;;;;;;9.30;6.93;;;;;;;0.11;57.18;100552.50;5111172;28;20197;-60
2021/12/22 04:01:32;;;;;;;6.77;5.47;;;;;;;0.13;56.41;100561.97;5111101;28;20284;-60
2021/12/22 04:04:04;;;;;;;6.80;5.97;;;;;;;0.14;56.09;100557.78;5111036;28;20198;-60
2021/12/22 04:06:31;;;;;;;9.07;6.17;;;;;;;0.10;56.68;100551.63;5110872;28;20201;-61
2021/12/22 04:08:58;;;;;;;9.23;5.87;;;;;;;0.09;56.31;100557.44;5110897;28;20192;-59
2021/12/22 04:11:25;;;;;;;7.80;5.33;;;;;;;0.03;56.25;100561.19;5110756;28;20277;-60
2021/12/22 04:13:52;;;;;;;7.47;5.43;;;;;;;0.01;55.50;100558.50;5110949;28;20194;-60
2021/12/22 04:16:21;;;;;;;7.23;5.50;;;;;;;-0.06;55.50;100563.88;5110622;28;20276;-59
2021/12/22 04:18:47;;;;;;;12.73;6.20;;;;;;;0.00;55.44;100567.72;5110855;28;20550;-60
2021/12/22 04:21:14;;;;;;;8.63;6.60;;;;;;;0.03;56.17;100573.81;5110514;28;20221;-59
2021/12/22 04:23:41;;;;;;;13.83;9.03;;;;;;;-0.10;57.87;100575.41;5110753;28;20728;-60
2021/12/22 04:26:10;;;;;;;14.50;10.17;;;;;;;-0.31;58.69;100577.97;5110723;28;20569;-59
2021/12/22 04:28:37;;;;;;;9.50;8.17;;;;;;;-0.33;58.98;100589.59;5110720;28;20193;-60
2021/12/22 04:31:04;;;;;;;11.57;9.03;;;;;;;-0.37;59.30;100585.06;5110359;28;20289;-59
2021/12/22 04:33:32;;;;;;;11.07;8.40;;;;;;;-0.38;59.57;100580.75;5110845;28;20194;-59
2021/12/22 04:35:59;;;;;;;9.80;7.10;;;;;;;-0.41;60.04;100572.97;5110774;28;20586;-59
2021/12/22 04:38:27;;;;;;;9.77;7.60;;;;;;;-0.36;59.61;100591.88;5110534;28;20190;-59
2021/12/22 04:40:54;;;;;;;10.83;9.20;;;;;;;-0.60;59.95;100563.09;5110710;28;20213;-59
2021/12/22 04:43:21;;;;;;;17.43;11.20;;;;;;;-0.56;60.40;100594.50;5114611;28;20200;-59
2021/12/22 04:45:48;;;;;;;16.60;9.40;;;;;;;-0.58;61.29;100594.41;5115072;28;20272;-59
2021/12/22 04:48:15;;;;;;;14.50;10.20;;;;;;;-0.77;61.43;100592.06;5114713;28;20280;-59
2021/12/22 04:50:43;;;;;;;15.47;10.23;;;;;;;-0.87;62.21;100588.72;5114627;28;20277;-59
2021/12/22 04:53:13;;;;;;;16.63;9.10;;;;;;;-0.86;62.00;100601.47;5114652;28;20952;-59
2021/12/22 04:55:40;;;;;;;12.93;9.57;;;;;;;-0.90;62.74;100596.03;5114593;28;20194;-59
2021/12/22 04:58:08;;;;;;;13.93;8.97;;;;;;;-0.91;62.32;100594.31;5114333;28;20190;-60
2021/12/22 05:00:37;;;;;;;13.13;9.73;;;;;;;-0.95;62.65;100599.84;5114379;28;20225;-60
2021/12/22 05:03:04;;;;;;;10.57;8.53;;;;;;;-1.02;62.74;100585.91;5114524;28;20281;-60
2021/12/22 05:05:31;;;;;;;13.80;8.87;;;;;;;-1.02;62.54;100600.13;5114142;28;20190;-60
2021/12/22 05:08:00;;;;;;;14.90;9.57;;;;;;;-1.01;62.28;100602.75;5114444;28;20197;-59
2021/12/22 05:10:28;;;;;;;12.27;8.40;;;;;;;-1.07;62.42;100586.28;5114120;28;20292;-59
2021/12/22 05:12:55;;;;;;;13.77;9.37;;;;;;;-1.00;62.95;100606.19;5114398;28;20190;-60
2021/12/22 05:15:25;;;;;;;14.33;8.97;;;;;;;-1.00;61.70;100608.69;5114036;28;20187;-60
2021/12/22 05:20:38;;;;;;;14.07;9.97;;;;;;;-1.01;62.28;100605.28;5113896;28;20212;-59
2021/12/22 05:23:06;;;;;;;14.20;10.63;;;;;;;-0.99;61.73;100606.28;5113850;28;20205;-60
2021/12/22 05:25:33;;;;;;;13.00;10.10;;;;;;;-1.00;62.20;100604.53;5113931;28;20194;-61
2021/12/22 05:28:00;;;;;;;16.97;10.50;;;;;;;-0.90;62.05;100612.06;5113954;28;20194;-61
2021/12/22 05:30:27;;;;;;;16.77;10.53;;;;;;;-0.86;62.07;100616.59;5113937;28;20190;-61
2021/12/22 05:32:55;;;;;;;16.37;11.00;;;;;;;-0.80;61.64;100619.63;5109906;28;20221;-60
2021/12/22 05:35:23;;;;;;;18.33;12.03;;;;;;;-0.72;62.15;100620.22;5096112;28;20198;-61
2021/12/22 05:37:50;;;;;;;19.33;11.43;;;;;;;-0.70;61.84;100617.03;5113812;28;20256;-61
2021/12/22 05:40:19;;;;;;;17.93;13.10;;;;;;;-0.62;61.44;100618.50;5113432;28;20689;-60
2021/12/22 05:42:46;;;;;;;16.83;12.20;;;;;;;-0.52;60.63;100624.28;5113318;28;20692;-61
2021/12/22 05:45:13;;;;;;;17.83;11.80;;;;;;;-0.62;61.43;100623.56;5113286;28;20194;-61
2021/12/22 05:47:40;;;;;;;18.30;12.17;;;;;;;-0.70;61.39;100628.75;5113326;28;20193;-60
2021/12/22 05:50:08;;;;;;;19.00;12.50;;;;;;;-0.66;61.93;100631.63;5113228;28;20187;-61
2021/12/22 05:52:35;;;;;;;15.60;12.47;;;;;;;-0.65;61.18;100633.41;5113232;28;20281;-61
2021/12/22 05:55:02;;;;;;;18.43;12.17;;;;;;;-0.68;61.01;100635.69;5112438;28;20186;-60
2021/12/22 05:57:31;;;;;;;20.83;13.23;;;;;;;-0.66;61.40;100641.72;5113165;28;20722;-60
2021/12/22 05:59:58;;;;;;;19.50;12.80;;;;;;;-0.67;61.26;100640.00;5113108;28;20225;-61
2021/12/22 06:02:25;;;;;;;17.97;12.63;;;;;;;-0.64;61.45;100644.38;5113162;28;20546;-61
2021/12/22 06:04:51;;;;;;;21.37;13.40;;;;;;;-0.72;61.48;100647.97;5112964;28;20190;-61
2021/12/22 06:07:18;;;;;;;21.17;13.20;;;;;;;-0.65;61.54;100646.03;5112803;28;20194;-60
2021/12/22 06:09:45;;;;;;;37.17;13.97;;;;;;;-0.66;61.61;100649.31;5113002;28;20556;-61
2021/12/22 06:12:12;;;;;;;20.63;14.13;;;;;;;-0.61;61.47;100652.19;5112943;28;20186;-61
2021/12/22 06:14:40;;;;;;;18.03;13.83;;;;;;;-0.64;60.34;100645.28;5112887;28;20197;-61
2021/12/22 06:17:07;;;;;;;19.40;13.43;;;;;;;-0.69;60.66;100649.06;5112945;28;20190;-61
2021/12/22 06:19:34;;;;;;;16.30;13.13;;;;;;;-0.62;61.32;100656.38;5112631;28;20201;-61
2021/12/22 06:22:01;;;;;;;20.43;14.50;;;;;;;-0.65;60.58;100658.66;5112610;28;20229;-61
2021/12/22 06:24:29;;;;;;;25.07;14.30;;;;;;;-0.51;60.44;100666.41;5112307;28;20183;-61
2021/12/22 06:26:57;;;;;;;19.40;13.73;;;;;;;-0.46;60.16;100671.06;5112323;28;20190;-61
2021/12/22 06:29:24;;;;;;;22.93;16.30;;;;;;;-0.38;60.26;100664.97;5111220;28;20273;-61
2021/12/22 06:31:52;;;;;;;28.97;14.93;;;;;;;-0.35;60.71;100665.19;5111409;28;20377;-60
2021/12/22 06:34:20;;;;;;;21.87;14.90;;;;;;;-0.38;59.64;100659.00;5111766;28;21015;-60
2021/12/22 06:36:47;;;;;;;20.27;13.43;;;;;;;-0.36;58.96;100665.09;5111799;28;20309;-61
2021/12/22 06:39:15;;;;;;;18.97;13.60;;;;;;;-0.31;59.03;100667.22;5111211;28;20193;-61
2021/12/22 06:41:42;;;;;;;20.70;13.07;;;;;;;-0.22;58.76;100660.31;5111446;28;20604;-60
2021/12/22 06:44:09;;;;;;;22.67;14.33;;;;;;;-0.18;58.57;100648.81;5112005;28;20199;-60
2021/12/22 06:46:36;;;;;;;18.43;13.00;;;;;;;-0.13;57.67;100662.66;5112279;28;20193;-61
2021/12/22 06:49:04;;;;;;;16.23;12.07;;;;;;;-0.09;57.79;100658.00;5111949;28;20194;-61
2021/12/22 06:51:31;;;;;;;18.35;13.90;;;;;;;0.10;57.38;100666.97;5110984;28;20434;-61
2021/12/22 06:53:58;;;;;;;19.30;11.80;;;;;;;0.95;54.53;100664.97;5111431;28;20614;-61
2021/12/22 06:56:25;;;;;;;14.50;11.33;;;;;;;1.17;52.50;100667.38;5111546;28;20657;-61
2021/12/22 06:58:52;;;;;;;23.30;12.80;;;;;;;0.93;52.95;100663.09;5111515;28;20191;-62
2021/12/22 07:01:20;;;;;;;27.10;13.40;;;;;;;0.67;54.52;100653.59;5111626;28;20224;-61
2021/12/22 07:03:47;;;;;;;18.50;12.77;;;;;;;0.58;54.33;100650.38;5111549;28;20190;-61
2021/12/22 07:06:15;;;;;;;21.17;13.23;;;;;;;0.48;54.30;100647.97;5105761;28;20201;-61
2021/12/22 07:08:43;;;;;;;27.47;13.20;;;;;;;0.34;54.88;100651.09;5105211;28;20300;-61
2021/12/22 07:11:10;;;;;;;20.80;14.50;;;;;;;0.37;55.11;100644.63;5103189;28;20199;-61
2021/12/22 07:13:37;;;;;;;19.33;12.27;;;;;;;0.52;53.84;100663.47;5099865;28;20193;-62
2021/12/22 07:16:04;;;;;;;23.40;13.47;;;;;;;0.55;54.00;100668.75;5111638;28;20361;-59
2021/12/22 07:18:32;;;;;;;22.37;12.60;;;;;;;0.47;54.48;100662.25;5083798;28;20195;-60
2021/12/22 07:20:59;;;;;;;16.10;12.23;;;;;;;0.52;54.52;100660.94;5070951;28;20705;-60
2021/12/22 07:23:28;;;;;;;21.77;15.02;;;;;;;0.59;54.57;100665.69;5090165;28;20432;-60
2021/12/22 07:25:55;;;;;;;19.60;12.63;;;;;;;0.64;54.54;100665.13;5090645;28;20205;-60
2021/12/22 07:28:22;;;;;;;21.53;13.40;;;;;;;0.57;54.68;100669.75;5091157;28;20254;-63
2021/12/22 07:30:49;;;;;;;19.47;12.90;;;;;;;0.57;54.03;100669.75;5091161;28;20274;-60
2021/12/22 07:33:17;;;;;;;20.97;12.23;;;;;;;0.58;54.79;100676.56;5090469;28;20227;-60
2021/12/22 07:35:51;;;;;;;20.23;12.30;;;;;;;0.56;54.82;100672.16;5090774;28;20248;-59
2021/12/22 07:38:32;;;;;;;21.77;12.43;;;;;;;0.59;55.20;100672.38;5090709;28;20187;-59
2021/12/22 07:41:01;;;;;;;27.93;13.57;;;;;;;0.70;54.64;100678.22;5090479;28;20215;-60
2021/12/22 07:43:29;;;;;;;20.17;14.30;;;;;;;0.82;54.84;100680.03;5090066;28;20513;-59
2021/12/22 07:45:57;;;;;;;18.00;13.63;;;;;;;0.86;53.97;100678.59;5071695;28;20195;-60
2021/12/22 07:48:24;;;;;;;20.57;12.13;;;;;;;0.95;53.76;100687.75;5070155;28;20199;-60
2021/12/22 07:50:51;;;;;;;17.13;12.63;;;;;;;1.05;54.21;100687.63;5070395;28;20301;-60
2021/12/22 07:53:19;;;;;;;17.30;14.00;;;;;;;1.15;54.20;100679.06;5069122;28;20443;-60
2021/12/22 07:55:47;;;;;;;21.67;15.70;;;;;;;1.28;53.94;100676.63;5070214;28;20648;-60
2021/12/22 07:58:14;;;;;;;19.87;12.90;;;;;;;1.30;53.42;100676.72;5070093;28;20197;-60
2021/12/22 08:00:42;;;;;;;30.23;13.43;;;;;;;1.29;54.17;100688.53;5070146;28;20314;-60
2021/12/22 08:03:11;;;;;;;18.23;12.13;;;;;;;1.29;54.03;100685.13;5069761;28;20202;-60
2021/12/22 08:05:39;;;;;;;19.80;13.10;;;;;;;1.34;54.22;100689.72;5069753;28;20191;-59
2021/12/22 08:08:06;;;;;;;23.43;14.80;;;;;;;1.25;55.05;100695.78;5070304;28;20278;-60
2021/12/22 08:10:34;;;;;;;17.33;12.13;;;;;;;1.26;54.43;100687.41;5070357;28;20574;-59
2021/12/22 08:13:02;;;;;;;21.43;12.77;;;;;;;1.32;55.01;100691.25;5070060;28;20261;-60
2021/12/22 08:15:29;;;;;;;19.03;13.47;;;;;;;1.28;54.86;100686.75;5069957;28;20354;-60
2021/12/22 08:17:57;;;;;;;16.73;12.43;;;;;;;1.27;54.82;100673.97;5069630;28;20199;-60
2021/12/22 08:20:25;;;;;;;19.75;13.25;;;;;;;1.44;54.81;100687.06;5069154;28;20529;-60
2021/12/22 08:22:52;;;;;;;16.73;12.80;;;;;;;1.51;54.51;100686.72;5070035;28;20195;-60
2021/12/22 08:25:19;;;;;;;20.57;12.73;;;;;;;1.54;53.50;100692.00;5069877;28;20187;-60
2021/12/22 08:27:46;;;;;;;15.70;12.07;;;;;;;1.45;53.41;100688.84;5069764;28;20202;-60
2021/12/22 08:30:15;;;;;;;23.87;12.80;;;;;;;1.54;53.64;100688.63;5069716;28;20578;-60
2021/12/22 08:32:42;;;;;;;18.10;13.63;;;;;;;1.64;54.32;100696.09;5069597;28;20323;-60
2021/12/22 08:35:12;;;;;;;20.60;14.03;;;;;;;1.76;53.53;100689.31;5079599;28;20194;-59
2021/12/22 08:40:24;;;;;;;19.87;12.03;;;;;;;1.89;53.33;100691.97;5080397;28;20240;-60
2021/12/22 08:42:51;;;;;;;19.13;13.10;;;;;;;1.99;53.48;100693.47;5079766;28;20183;-60
2021/12/22 08:45:20;;;;;;;26.17;16.40;;;;;;;1.79;54.33;100699.66;5078282;28;20188;-60
2021/12/22 08:47:48;;;;;;;27.07;16.83;;;;;;;1.77;54.50;100696.16;5079351;28;20248;-60
2021/12/22 08:50:18;;;;;;;24.33;16.37;;;;;;;1.81;54.69;100689.66;5090386;28;20489;-60
2021/12/22 08:52:46;;;;;;;21.27;14.10;;;;;;;1.90;53.65;100680.13;5080244;28;20661;-56
2021/12/22 08:55:15;;;;;;;22.57;13.13;;;;;;;2.00;53.87;100685.97;5071147;28;20255;-56
2021/12/22 08:57:42;;;;;;;21.57;13.47;;;;;;;2.10;53.38;100679.88;5089723;28;20226;-56
2021/12/22 09:00:11;;;;;;;19.37;13.33;;;;;;;2.19;53.42;100683.03;5090027;28;20274;-56
2021/12/22 09:02:41;;;;;;;20.50;12.90;;;;;;;2.23;52.80;100682.44;5089798;28;20225;-57
2021/12/22 09:05:08;;;;;;;15.33;11.77;;;;;;;2.23;52.33;100677.38;5089806;28;20285;-56
2021/12/22 09:07:35;;;;;;;14.50;11.43;;;;;;;2.26;52.22;100683.53;5089756;28;20191;-56
2021/12/22 09:10:03;;;;;;;21.23;13.23;;;;;;;2.29;52.15;100677.81;5089776;28;20464;-57
2021/12/22 09:12:30;;;;;;;15.70;11.90;;;;;;;2.32;52.09;100672.94;5079992;28;20266;-57
2021/12/22 09:14:58;;;;;;;14.27;10.37;;;;;;;2.43;51.39;100672.00;5069589;28;20206;-56
2021/12/22 09:17:25;;;;;;;14.17;9.67;;;;;;;2.28;50.08;100666.78;5069492;28;20191;-56
2021/12/22 09:19:53;;;;;;;15.88;12.93;;;;;;;2.22;51.09;100676.53;5068635;28;20910;-56
2021/12/22 09:22:21;;;;;;;16.73;12.20;;;;;;;2.36;51.03;100669.84;5068926;28;20238;-57
2021/12/22 09:24:48;;;;;;;15.90;10.03;;;;;;;2.51;50.19;100673.41;5068650;28;20196;-56
2021/12/22 09:27:15;;;;;;;13.60;9.83;;;;;;;2.53;49.87;100665.91;5068458;28;20202;-56
2021/12/22 09:29:43;;;;;;;13.93;10.27;;;;;;;2.57;50.10;100658.59;5069183;28;20286;-56
2021/12/22 09:32:14;;;;;;;17.20;10.80;;;;;;;2.66;49.84;100659.19;5071368;28;20223;-56
2021/12/22 09:34:41;;;;;;;13.37;9.70;;;;;;;2.69;49.30;100663.59;5071751;28;20195;-56
2021/12/22 09:37:09;;;;;;;13.77;10.57;;;;;;;2.71;49.17;100646.81;5072269;28;20290;-56
2021/12/22 09:39:36;;;;;;;14.23;9.77;;;;;;;2.68;49.37;100637.34;5072303;28;20238;-56
2021/12/22 09:42:04;;;;;;;14.90;12.17;;;;;;;2.74;49.92;100636.84;5071655;28;20446;-56
2021/12/22 09:44:33;;;;;;;14.83;11.60;;;;;;;2.84;49.27;100629.06;5072156;28;20481;-56
2021/12/22 09:47:00;;;;;;;12.33;10.13;;;;;;;2.86;48.75;100625.84;5071336;28;20203;-56
2021/12/22 09:49:46;;;;;;;13.83;10.67;;;;;;;2.91;48.51;100627.00;5072070;28;20227;-56
2021/12/22 09:52:18;;;;;;;14.37;9.97;;;;;;;2.96;47.96;100630.75;5072169;28;20578;-56
2021/12/22 09:54:47;;;;;;;18.63;11.33;;;;;;;3.03;48.00;100621.84;5071632;28;20236;-57
2021/12/22 09:57:17;;;;;;;14.37;10.03;;;;;;;3.06;47.95;100622.03;5072076;28;20192;-56
2021/12/22 09:59:45;;;;;;;17.17;11.17;;;;;;;3.04;48.47;100612.56;5071926;28;20589;-57
2021/12/22 10:02:12;;;;;;;18.00;11.83;;;;;;;2.74;48.41;100571.78;5071862;28;20579;-56
2021/12/22 10:04:39;;;;;;;20.70;11.23;;;;;;;3.03;48.12;100619.28;5072638;28;20191;-56
2021/12/22 10:07:07;;;;;;;12.20;10.10;;;;;;;3.07;47.55;100610.22;5072058;28;20659;-56
2021/12/22 10:09:43;;;;;;;17.13;11.30;;;;;;;3.10;47.76;100615.50;5072076;28;20627;-56
2021/12/22 10:12:15;;;;;;;12.87;8.77;;;;;;;3.19;47.27;100610.97;5071516;28;20296;-56
2021/12/22 10:14:50;;;;;;;12.67;8.33;;;;;;;3.27;46.58;100614.91;5071698;28;20567;-56
2021/12/22 10:17:28;;;;;;;11.90;8.10;;;;;;;3.15;45.89;100597.22;5071796;28;20191;-56
2021/12/22 10:19:57;;;;;;;13.10;9.17;;;;;;;3.38;46.62;100614.78;5071527;28;20426;-56
2021/12/22 10:22:30;;;;;;;17.40;9.60;;;;;;;3.43;46.03;100605.75;5071584;28;20481;-56
2021/12/22 10:25:10;;;;;;;13.37;9.43;;;;;;;3.45;45.96;100596.59;5071697;28;20658;-61
2021/12/22 10:27:38;;;;;;;14.93;9.73;;;;;;;3.48;46.56;100596.78;5071810;28;20229;-61
2021/12/22 10:30:24;;;;;;;12.93;9.67;;;;;;;3.47;46.53;100597.56;5071332;28;20544;-61
2021/12/22 10:33:05;;;;;;;16.40;9.87;;;;;;;3.60;46.49;100595.78;5070280;28;20760;-60
2021/12/22 10:35:34;;;;;;;15.90;10.40;;;;;;;3.73;46.80;100598.28;5071093;28;20348;-61
2021/12/22 10:38:01;;;;;;;16.03;9.47;;;;;;;3.50;46.40;100597.75;5070923;28;20666;-60
2021/12/22 10:40:32;;;;;;;13.73;10.03;;;;;;;3.40;47.17;100600.53;5070861;28;20192;-60
2021/12/22 10:43:01;;;;;;;16.27;10.00;;;;;;;3.37;46.86;100597.78;5070947;28;20712;-61
2021/12/22 10:45:29;;;;;;;17.60;12.50;;;;;;;3.45;48.06;100585.56;5070070;28;20441;-60
2021/12/22 10:50:43;;;;;;;14.50;9.87;;;;;;;3.70;46.63;100577.78;5087679;28;20312;-61
2021/12/22 10:53:13;;;;;;;14.23;9.30;;;;;;;3.74;47.27;100580.56;5098825;28;20220;-60
2021/12/22 10:55:45;;;;;;;18.10;10.30;;;;;;;3.75;46.89;100569.63;5094833;28;20558;-60
2021/12/22 10:58:22;;;;;;;12.53;9.43;;;;;;;3.73;46.31;100561.06;5111255;28;20533;-61
2021/12/22 11:01:08;;;;;;;10.67;7.90;;;;;;;3.80;46.48;100573.31;5111822;28;20296;-60
2021/12/22 11:03:40;;;;;;;12.10;8.47;;;;;;;3.86;46.40;100563.53;5107366;28;20203;-61
2021/12/22 11:06:17;;;;;;;12.87;9.73;;;;;;;3.93;46.20;100558.00;5090947;28;20198;-60
2021/12/22 11:08:57;;;;;;;11.07;8.53;;;;;;;4.05;45.40;100552.78;5091042;28;20627;-60
2021/12/22 11:11:31;;;;;;;10.87;8.07;;;;;;;4.13;45.10;100549.91;5091147;28;20286;-60
2021/12/22 11:14:23;;;;;;;10.93;8.87;;;;;;;4.22;44.71;100543.59;5091292;28;20195;-60
2021/12/22 11:16:56;;;;;;;12.53;9.83;;;;;;;4.38;44.76;100543.69;5071342;28;20448;-60
2021/12/22 11:19:24;;;;;;;10.77;8.47;;;;;;;4.47;44.65;100542.56;5090797;28;20512;-59
2021/12/22 11:21:59;;;;;;;12.73;9.63;;;;;;;4.52;45.33;100519.91;5105479;28;20262;-60
2021/12/22 11:24:27;;;;;;;11.93;8.87;;;;;;;4.64;44.45;100540.97;5111177;28;20276;-60
2021/12/22 11:26:57;;;;;;;15.00;9.90;;;;;;;4.61;43.89;100540.78;5111267;28;20251;-61
2021/12/22 11:29:24;;;;;;;14.03;10.20;;;;;;;4.54;44.33;100539.53;5111036;28;20194;-59
2021/12/22 11:31:52;;;;;;;13.73;9.30;;;;;;;4.33;44.70;100542.53;5110730;28;20249;-60
2021/12/22 11:34:21;;;;;;;12.23;8.50;;;;;;;4.07;45.04;100536.81;5110904;28;20200;-59
2021/12/22 11:36:50;;;;;;;12.50;8.77;;;;;;;3.85;45.15;100535.47;5110890;28;20572;-59
2021/12/22 11:39:19;;;;;;;14.93;9.47;;;;;;;3.91;45.86;100540.91;5110577;28;20198;-60
2021/12/22 11:41:56;;;;;;;13.05;9.93;;;;;;;4.00;45.56;100537.25;5110199;28;20438;-60
2021/12/22 11:44:26;;;;;;;12.83;9.40;;;;;;;4.04;45.50;100534.09;5074120;28;20625;-60